createdAt,value
2022-08-30T00:03:20.017Z,0.34
2022-08-30T00:08:26.230Z,0.26
2022-08-30T00:13:32.967Z,0.32
2022-08-30T00:18:39.474Z,0.29
2022-08-30T00:23:46.596Z,0.28
2022-08-30T00:28:52.988Z,0.33
2022-08-30T00:33:59.748Z,0.28
2022-08-30T00:39:06.145Z,0.38
2022-08-30T00:44:13.024Z,0.29
2022-08-30T00:49:19.416Z,0.43
2022-08-30T00:54:26.333Z,0.30
2022-08-30T00:59:32.489Z,0.41
2022-08-30T01:04:39.992Z,0.33
2022-08-30T01:09:46.995Z,0.53
2022-08-30T01:14:54.568Z,0.35
2022-08-30T01:20:00.993Z,0.47
2022-08-30T01:25:08.215Z,0.35
2022-08-30T01:30:13.889Z,0.35
2022-08-30T01:35:20.663Z,0.44
2022-08-30T01:40:27.174Z,0.37
2022-08-30T01:45:34.054Z,0.65
2022-08-30T01:50:40.538Z,0.44
2022-08-30T01:55:47.226Z,0.43
2022-08-30T02:00:53.201Z,0.43
2022-08-30T02:06:00.729Z,0.53
2022-08-30T02:11:07.415Z,0.33
2022-08-30T02:16:15.035Z,0.43
2022-08-30T02:21:21.411Z,0.50
2022-08-30T02:26:28.089Z,0.48
2022-08-30T02:31:34.486Z,0.67
2022-08-30T02:36:41.175Z,0.48
2022-08-30T02:41:47.662Z,0.50
2022-08-30T02:46:53.955Z,0.51
2022-08-30T02:52:00.435Z,0.44
2022-08-30T02:57:07.245Z,0.52
2022-08-30T03:02:13.210Z,0.69
2022-08-30T03:07:20.018Z,0.41
2022-08-30T03:12:26.694Z,0.53
2022-08-30T03:17:33.507Z,0.59
2022-08-30T03:22:39.974Z,0.49
2022-08-30T03:27:46.776Z,0.50
2022-08-30T03:32:53.262Z,0.45
2022-08-30T03:38:00.159Z,0.44
2022-08-30T03:43:06.752Z,0.52
2022-08-30T03:48:13.513Z,0.44
2022-08-30T03:53:19.932Z,0.61
2022-08-30T03:58:26.726Z,0.45
2022-08-30T04:03:33.208Z,0.53
2022-08-30T04:08:40.006Z,0.41
2022-08-30T04:13:46.607Z,0.59
2022-08-30T04:18:53.395Z,0.59
2022-08-30T04:23:59.791Z,0.42
2022-08-30T04:29:06.735Z,0.60
2022-08-30T04:34:13.134Z,0.58
2022-08-30T04:39:19.856Z,0.45
2022-08-30T04:44:26.343Z,0.42
2022-08-30T04:49:33.105Z,0.43
2022-08-30T04:54:39.537Z,0.50
2022-08-30T04:59:46.522Z,0.40
2022-08-30T05:04:52.918Z,0.54
2022-08-30T05:10:00.420Z,0.54
2022-08-30T05:15:07.447Z,0.48
2022-08-30T05:20:15.720Z,0.54
2022-08-30T05:25:28.923Z,0.59
2022-08-30T05:30:23.246Z,1.02
2022-08-30T05:35:29.638Z,1.31
2022-08-30T05:40:36.552Z,1.58
2022-08-30T05:45:42.969Z,1.41
2022-08-30T05:50:50.687Z,1.76
2022-08-30T05:55:57.183Z,1.39
2022-08-30T06:01:05.845Z,1.43
2022-08-30T06:06:12.299Z,1.35
2022-08-30T06:11:19.063Z,1.04
2022-08-30T06:16:26.248Z,1.34
2022-08-30T06:21:33.003Z,1.09
2022-08-30T06:26:39.588Z,0.83
2022-08-30T06:31:59.296Z,0.94
2022-08-30T06:36:55.783Z,0.87
2022-08-30T06:42:03.146Z,0.94
2022-08-30T06:47:10.171Z,1.18
2022-08-30T06:52:17.123Z,0.81
2022-08-30T06:57:23.118Z,0.74
2022-08-30T07:02:30.172Z,0.64
2022-08-30T07:07:37.860Z,0.64
2022-08-30T07:12:44.831Z,0.67
2022-08-30T07:17:51.927Z,0.65
2022-08-30T07:22:58.836Z,0.72
2022-08-30T07:28:05.445Z,0.67
2022-08-30T07:33:13.309Z,0.83
2022-08-30T07:38:19.745Z,0.62
2022-08-30T07:43:27.883Z,0.70
2022-08-30T07:48:34.350Z,0.61
2022-08-30T07:53:41.144Z,0.65
2022-08-30T07:58:47.654Z,0.57
2022-08-30T08:03:54.516Z,0.61
2022-08-30T08:09:02.027Z,0.42
2022-08-30T08:14:11.237Z,0.39
2022-08-30T08:19:18.055Z,0.36
2022-08-30T08:24:25.009Z,0.65
2022-08-30T08:29:36.238Z,0.52
2022-08-30T08:34:32.630Z,0.39
2022-08-30T08:39:39.014Z,0.51
2022-08-30T08:44:46.282Z,0.32
2022-08-30T08:49:52.171Z,0.41
2022-08-30T08:54:59.303Z,0.56
2022-08-30T09:00:05.738Z,0.44
2022-08-30T09:05:12.611Z,0.53
2022-08-30T09:10:29.946Z,0.62
2022-08-30T09:15:26.916Z,0.45
2022-08-30T09:20:33.279Z,0.90
2022-08-30T09:25:53.930Z,0.85
2022-08-30T09:40:59.012Z,0.61
2022-08-30T09:51:02.277Z,0.67
2022-08-30T09:56:11.290Z,0.73
2022-08-30T10:01:17.986Z,0.82
2022-08-30T10:06:25.832Z,0.66
2022-08-30T10:11:31.928Z,0.57
2022-08-30T10:16:38.935Z,0.75
2022-08-30T10:21:45.513Z,0.54
2022-08-30T10:26:51.998Z,0.65
2022-08-30T10:31:58.027Z,0.75
2022-08-30T10:37:05.467Z,0.54
2022-08-30T10:42:12.143Z,0.84
2022-08-30T10:52:25.703Z,0.56
2022-08-30T10:57:32.202Z,0.64
2022-08-30T11:02:38.645Z,0.55
2022-08-30T11:07:47.489Z,0.60
2022-08-30T11:12:53.976Z,0.73
2022-08-30T11:18:01.591Z,0.55
2022-08-30T11:23:08.279Z,0.95
2022-08-30T11:28:19.103Z,0.87
2022-08-30T11:33:21.849Z,0.49
2022-08-30T11:38:29.488Z,0.73
2022-08-30T11:43:36.545Z,0.60
2022-08-30T11:48:53.618Z,0.51
2022-08-30T11:53:48.745Z,0.79
2022-08-30T11:59:00.941Z,0.60
2022-08-30T12:03:57.422Z,0.76
2022-08-30T12:09:03.617Z,1.11
2022-08-30T12:14:13.274Z,0.89
2022-08-30T12:19:17.090Z,0.77
2022-08-30T12:24:23.633Z,0.80
2022-08-30T12:29:30.799Z,0.73
2022-08-30T12:34:37.887Z,0.87
2022-08-30T12:39:44.944Z,0.74
2022-08-30T12:44:51.531Z,0.69
2022-08-30T12:49:58.271Z,1.04
2022-08-30T12:55:04.757Z,0.60
2022-08-30T13:00:14.740Z,0.84
2022-08-30T13:05:11.186Z,0.58
2022-08-30T13:10:19.568Z,1.08
2022-08-30T13:15:24.026Z,0.84
2022-08-30T13:20:30.861Z,0.97
2022-08-30T13:25:37.265Z,0.76
2022-08-30T13:30:44.141Z,1.11
2022-08-30T13:35:50.645Z,0.73
2022-08-30T13:40:57.707Z,0.96
2022-08-30T13:46:03.668Z,0.85
2022-08-30T13:51:10.404Z,0.58
2022-08-30T13:56:17.179Z,0.87
2022-08-30T14:01:23.910Z,0.99
2022-08-30T14:06:34.216Z,0.99
2022-08-30T14:11:36.586Z,0.72
2022-08-30T14:16:42.486Z,0.78
2022-08-30T14:21:49.489Z,0.75
2022-08-30T14:26:56.351Z,0.87
2022-08-30T14:32:03.329Z,0.76
2022-08-30T14:37:10.097Z,0.76
2022-08-30T14:42:18.916Z,0.71
2022-08-30T14:47:29.396Z,0.57
2022-08-30T14:52:30.228Z,0.64
2022-08-30T14:57:36.703Z,0.64
2022-08-30T15:02:44.112Z,0.69
2022-08-30T15:07:54.351Z,0.77
2022-08-30T15:12:56.430Z,0.86
2022-08-30T15:18:01.940Z,0.60
2022-08-30T15:23:03.452Z,0.74
2022-08-30T15:28:09.687Z,0.75
2022-08-30T15:33:32.197Z,0.90
2022-08-30T15:38:25.184Z,0.63
2022-08-30T15:43:30.551Z,0.81
2022-08-30T15:53:54.263Z,0.68
2022-08-30T15:58:41.101Z,1.09
2022-08-30T16:03:47.858Z,0.82
2022-08-30T16:08:53.817Z,0.82
2022-08-30T16:14:00.615Z,0.80
2022-08-30T16:19:07.711Z,0.90
2022-08-30T16:24:14.763Z,0.97
2022-08-30T16:29:21.717Z,0.56
2022-08-30T16:34:28.506Z,0.97
2022-08-30T16:39:35.061Z,0.86
2022-08-30T16:44:41.789Z,0.86
2022-08-30T16:49:48.311Z,0.76
2022-08-30T16:54:54.667Z,0.87
2022-08-30T17:00:01.369Z,0.99
2022-08-30T17:05:12.110Z,0.66
2022-08-30T17:10:20.916Z,0.60
2022-08-30T17:15:16.026Z,0.98
2022-08-30T17:20:22.404Z,0.64
2022-08-30T17:25:33.428Z,0.70
2022-08-30T17:30:36.515Z,0.91
2022-08-30T17:35:46.655Z,0.88
2022-08-30T17:40:42.649Z,0.97
2022-08-30T17:45:49.325Z,0.86
2022-08-30T17:50:55.797Z,0.68
2022-08-30T17:56:02.490Z,0.73
2022-08-30T18:01:11.625Z,0.89
2022-08-30T18:06:15.167Z,0.75
2022-08-30T18:11:21.193Z,0.82
2022-08-30T18:16:28.069Z,0.84
2022-08-30T18:21:34.537Z,0.89
2022-08-30T18:31:47.607Z,0.56
2022-08-30T18:36:54.426Z,0.71
2022-08-30T18:42:00.932Z,0.74
2022-08-30T18:47:10.099Z,0.65
2022-08-30T18:52:16.526Z,0.69
2022-08-30T18:57:22.819Z,0.53
2022-08-30T19:02:30.738Z,0.65
2022-08-30T19:07:42.190Z,0.62
2022-08-30T19:12:38.400Z,0.74
2022-08-30T19:17:45.381Z,0.77
2022-08-30T19:23:09.717Z,0.58
2022-08-30T19:27:58.276Z,0.76
2022-08-30T19:33:05.777Z,0.58
2022-08-30T19:38:11.750Z,0.72
2022-08-30T19:43:18.368Z,0.91
2022-08-30T19:48:24.658Z,0.78
2022-08-30T19:53:30.645Z,0.61
2022-08-30T19:58:37.396Z,1.03
2022-08-30T20:03:43.784Z,0.88
2022-08-30T20:08:50.605Z,0.60
2022-08-30T20:13:56.508Z,0.61
2022-08-30T20:19:03.349Z,0.75
2022-08-30T20:24:09.659Z,0.77
2022-08-30T20:29:19.731Z,0.89
2022-08-30T20:34:16.037Z,0.68
2022-08-30T20:39:23.469Z,0.71
2022-08-30T20:44:29.895Z,0.72
2022-08-30T20:49:36.645Z,0.60
2022-08-30T20:54:43.138Z,0.88
2022-08-30T20:59:49.936Z,1.03
2022-08-30T21:04:56.419Z,0.72
2022-08-30T21:10:03.228Z,0.56
2022-08-30T21:15:20.985Z,0.74
2022-08-30T21:20:15.980Z,0.61
2022-08-30T21:25:22.476Z,0.70
2022-08-30T21:30:29.240Z,0.68
2022-08-30T21:35:36.274Z,0.75
2022-08-30T21:40:43.157Z,0.84
2022-08-30T21:45:49.635Z,0.78
2022-08-30T21:50:56.318Z,0.78
2022-08-30T21:56:02.705Z,0.67
2022-08-30T22:01:09.470Z,0.69
2022-08-30T22:06:15.803Z,0.98
2022-08-30T22:11:24.636Z,0.88
2022-08-30T22:16:31.202Z,0.95
2022-08-30T22:21:37.990Z,0.78
2022-08-30T22:26:44.441Z,0.83
2022-08-30T22:31:51.502Z,0.66
2022-08-30T22:36:57.949Z,0.59
2022-08-30T22:42:04.639Z,0.52
2022-08-30T22:47:11.097Z,0.70
2022-08-30T22:52:17.885Z,0.74
2022-08-30T22:57:23.880Z,0.86
2022-08-30T23:02:30.724Z,0.79
2022-08-30T23:07:37.350Z,0.60
2022-08-30T23:12:44.142Z,0.72
2022-08-30T23:17:50.743Z,0.59
2022-08-30T23:22:57.536Z,0.72
2022-08-30T23:28:06.747Z,0.55
2022-08-30T23:33:13.587Z,0.69
2022-08-30T23:38:19.948Z,0.79
2022-08-30T23:43:26.410Z,0.58
2022-08-30T23:48:32.734Z,0.88
2022-08-30T23:53:39.116Z,0.71
2022-08-30T23:58:46.069Z,0.62
